Time;durP1;ratioP1;P1;durP2;ratioP2;P2;SDS_P1;SDS_P2;PMS_P1;PMS_P2;Temp;Humidity;BMP_temperature;BMP_pressure;BME280_temperature;BME280_humidity;BME280_pressure;Samples;Min_cycle;Max_cycle;Signal;HPM_P1;HPM_P2
2022/05/26 00:00:48;;;;;;;13.75;13.25;;;;;;;;;;5093181;28;20225;-74
2022/05/26 00:03:14;;;;;;;13.57;13.07;;;;;;;;;;5093225;28;20198;-73
2022/05/26 00:05:42;;;;;;;13.90;13.40;;;;;;;;;;5093380;28;20308;-73
2022/05/26 00:08:09;;;;;;;14.10;13.60;;;;;;;;;;5093299;28;20307;-73
2022/05/26 00:10:36;;;;;;;13.70;13.25;;;;;;;;;;5093085;28;20281;-73
2022/05/26 00:13:05;;;;;;;13.68;13.20;;;;;;;;;;5093004;28;20233;-73
2022/05/26 00:15:32;;;;;;;13.35;12.95;;;;;;;;;;5093308;28;20255;-74
2022/05/26 00:17:58;;;;;;;13.50;13.10;;;;;;;;;;5093218;28;20288;-73
2022/05/26 00:20:25;;;;;;;12.90;12.50;;;;;;;;;;5093192;28;20193;-73
2022/05/26 00:22:53;;;;;;;13.90;13.40;;;;;;;;;;5093145;28;20713;-72
2022/05/26 00:25:20;;;;;;;14.77;14.27;;;;;;;;;;5092655;28;20225;-73
2022/05/26 00:27:47;;;;;;;14.55;14.05;;;;;;;;;;5092709;28;20770;-73
2022/05/26 00:30:14;;;;;;;15.07;14.48;;;;;;;;;;5092687;28;20284;-74
2022/05/26 00:32:40;;;;;;;15.18;14.57;;;;;;;;;;5092963;28;20301;-73
2022/05/26 00:35:08;;;;;;;15.52;14.93;;;;;;;;;;5092926;28;20205;-72
2022/05/26 00:37:35;;;;;;;15.75;15.15;;;;;;;;;;5092858;28;20281;-73
2022/05/26 00:40:03;;;;;;;15.40;14.80;;;;;;;;;;5093095;28;20289;-73
2022/05/26 00:42:30;;;;;;;16.13;15.52;;;;;;;;;;5092748;28;20276;-73
2022/05/26 00:44:56;;;;;;;15.30;14.70;;;;;;;;;;5092707;28;20233;-73
2022/05/26 00:47:24;;;;;;;16.08;15.48;;;;;;;;;;5092432;28;20194;-73
2022/05/26 00:49:52;;;;;;;15.63;15.02;;;;;;;;;;5092675;28;20197;-73
2022/05/26 00:52:21;;;;;;;17.40;16.70;;;;;;;;;;5092679;28;20219;-73
2022/05/26 00:54:48;;;;;;;17.60;16.80;;;;;;;;;;5092280;28;20583;-73
2022/05/26 00:57:18;;;;;;;17.60;16.80;;;;;;;;;;5092634;28;20193;-73
2022/05/26 00:59:48;;;;;;;17.70;16.90;;;;;;;;;;5092513;28;20280;-73
2022/05/26 01:02:16;;;;;;;16.95;16.25;;;;;;;;;;5092282;28;20186;-73
2022/05/26 01:04:49;;;;;;;16.90;16.20;;;;;;;;;;5092417;28;20247;-74
2022/05/26 01:07:18;;;;;;;17.02;16.27;;;;;;;;;;5092511;28;20243;-73
2022/05/26 01:09:45;;;;;;;16.67;15.98;;;;;;;;;;5091890;28;20189;-74
2022/05/26 01:12:12;;;;;;;16.40;15.70;;;;;;;;;;5092179;28;20303;-74
2022/05/26 01:14:43;;;;;;;16.20;15.50;;;;;;;;;;5092052;28;20591;-73
2022/05/26 01:17:14;;;;;;;16.02;15.32;;;;;;;;;;5092115;28;20192;-73
2022/05/26 01:19:59;;;;;;;16.60;15.82;;;;;;;;;;5092077;28;20190;-73
2022/05/26 01:22:33;;;;;;;16.60;15.90;;;;;;;;;;5092112;28;20194;-73
2022/05/26 01:25:08;;;;;;;16.35;15.65;;;;;;;;;;5092300;28;20216;-73
2022/05/26 01:27:37;;;;;;;16.63;15.93;;;;;;;;;;5092359;28;20643;-73
2022/05/26 01:30:24;;;;;;;17.67;16.88;;;;;;;;;;5091919;28;20190;-73
2022/05/26 01:33:14;;;;;;;16.58;15.88;;;;;;;;;;5091984;28;20273;-73
2022/05/26 01:35:43;;;;;;;16.50;15.80;;;;;;;;;;5092210;28;20709;-74
2022/05/26 01:38:17;;;;;;;16.67;15.98;;;;;;;;;;5092232;28;20277;-73
2022/05/26 01:40:50;;;;;;;17.27;16.48;;;;;;;;;;5092463;28;20214;-73
2022/05/26 01:43:22;;;;;;;17.05;16.25;;;;;;;;;;5091909;28;20190;-73
2022/05/26 01:45:51;;;;;;;17.17;16.38;;;;;;;;;;5091772;28;20687;-74
2022/05/26 01:48:22;;;;;;;16.95;16.15;;;;;;;;;;5092105;28;20198;-74
2022/05/26 01:50:52;;;;;;;17.10;16.30;;;;;;;;;;5091813;28;20186;-74
2022/05/26 01:53:25;;;;;;;17.45;16.65;;;;;;;;;;5091994;28;20285;-74
2022/05/26 01:55:55;;;;;;;18.02;17.13;;;;;;;;;;5091728;28;20277;-74
2022/05/26 01:58:25;;;;;;;18.40;17.50;;;;;;;;;;5091739;28;20289;-73
2022/05/26 02:00:52;;;;;;;17.88;17.08;;;;;;;;;;5091647;28;20289;-73
2022/05/26 02:03:22;;;;;;;17.70;16.90;;;;;;;;;;5091922;28;20194;-73
2022/05/26 02:05:50;;;;;;;17.42;16.63;;;;;;;;;;5091545;28;20703;-73
2022/05/26 02:08:20;;;;;;;16.92;16.23;;;;;;;;;;5091946;28;20190;-73
2022/05/26 02:10:50;;;;;;;17.42;16.63;;;;;;;;;;5091596;28;20594;-74
2022/05/26 02:13:18;;;;;;;17.75;16.95;;;;;;;;;;5091367;28;20675;-73
2022/05/26 02:15:47;;;;;;;18.50;17.60;;;;;;;;;;5091826;28;20198;-73
2022/05/26 02:18:17;;;;;;;17.38;16.58;;;;;;;;;;5092027;28;20560;-74
2022/05/26 02:20:46;;;;;;;17.30;16.50;;;;;;;;;;5091835;28;20198;-74
2022/05/26 02:23:17;;;;;;;17.65;16.85;;;;;;;;;;5095119;28;20190;-74
2022/05/26 02:25:43;;;;;;;18.15;17.35;;;;;;;;;;5095342;28;20294;-74
2022/05/26 02:28:11;;;;;;;17.38;16.58;;;;;;;;;;5095335;28;20201;-74
2022/05/26 02:30:38;;;;;;;17.20;16.40;;;;;;;;;;5095051;28;20200;-73
2022/05/26 02:33:06;;;;;;;16.83;16.13;;;;;;;;;;5094953;28;20202;-74
2022/05/26 02:35:34;;;;;;;17.10;16.38;;;;;;;;;;5095130;28;20289;-74
2022/05/26 02:38:05;;;;;;;16.48;15.77;;;;;;;;;;5095171;28;20248;-74
2022/05/26 02:40:31;;;;;;;16.58;15.88;;;;;;;;;;5094830;28;20259;-74
2022/05/26 02:43:00;;;;;;;16.05;15.35;;;;;;;;;;5094829;28;20198;-74
2022/05/26 02:45:33;;;;;;;16.17;15.48;;;;;;;;;;5094618;28;20221;-74
2022/05/26 02:48:03;;;;;;;16.65;15.95;;;;;;;;;;5094965;28;20186;-74
2022/05/26 02:50:36;;;;;;;16.98;16.27;;;;;;;;;;5094968;28;20222;-74
2022/05/26 02:53:07;;;;;;;17.30;16.52;;;;;;;;;;5094619;28;20640;-73
2022/05/26 02:55:41;;;;;;;17.00;16.30;;;;;;;;;;5094867;28;20224;-73
2022/05/26 02:58:11;;;;;;;17.40;16.60;;;;;;;;;;5094495;28;20221;-73
2022/05/26 03:00:42;;;;;;;17.73;16.92;;;;;;;;;;5094393;28;20193;-74
2022/05/26 03:03:13;;;;;;;17.27;16.50;;;;;;;;;;5094701;28;20281;-74
2022/05/26 03:05:41;;;;;;;17.08;16.38;;;;;;;;;;5094583;28;20263;-74
2022/05/26 03:08:13;;;;;;;16.00;15.30;;;;;;;;;;5094559;28;20272;-75
2022/05/26 03:10:39;;;;;;;17.20;16.50;;;;;;;;;;5094256;28;20190;-74
2022/05/26 03:13:06;;;;;;;16.42;15.73;;;;;;;;;;5093964;28;20235;-74
2022/05/26 03:15:34;;;;;;;15.95;15.35;;;;;;;;;;5094159;28;20285;-74
2022/05/26 03:18:01;;;;;;;15.45;14.85;;;;;;;;;;5094062;28;20292;-74
2022/05/26 03:20:28;;;;;;;15.45;14.85;;;;;;;;;;5094036;28;20289;-74
2022/05/26 03:22:55;;;;;;;15.60;15.00;;;;;;;;;;5094268;28;20675;-74
2022/05/26 03:25:23;;;;;;;14.75;14.25;;;;;;;;;;5094168;28;20314;-74
2022/05/26 03:27:50;;;;;;;15.13;14.52;;;;;;;;;;5094205;28;20196;-74
2022/05/26 03:30:16;;;;;;;15.20;14.60;;;;;;;;;;5094883;28;20339;-75
2022/05/26 03:32:43;;;;;;;15.50;14.90;;;;;;;;;;5093771;28;20240;-75
2022/05/26 03:40:56;;;;;;;14.95;14.45;;;;;;;;;;5094566;28;20631;-74
2022/05/26 03:43:23;;;;;;;14.75;14.15;;;;;;;;;;5093954;28;20190;-74
2022/05/26 03:45:50;;;;;;;15.05;14.45;;;;;;;;;;5093461;28;20316;-75
2022/05/26 03:48:17;;;;;;;15.50;14.90;;;;;;;;;;5093518;28;20197;-74
2022/05/26 03:50:43;;;;;;;15.13;14.52;;;;;;;;;;5093714;28;20232;-75
2022/05/26 03:53:10;;;;;;;15.07;14.48;;;;;;;;;;5093478;28;20280;-75
2022/05/26 03:55:37;;;;;;;15.45;14.85;;;;;;;;;;5093331;28;20198;-75
2022/05/26 03:58:05;;;;;;;15.35;14.75;;;;;;;;;;5093641;28;20272;-75
2022/05/26 04:00:32;;;;;;;15.27;14.68;;;;;;;;;;5093274;28;20225;-75
2022/05/26 04:02:59;;;;;;;14.88;14.27;;;;;;;;;;5093555;28;20247;-75
2022/05/26 04:05:26;;;;;;;14.65;14.05;;;;;;;;;;5093435;28;20276;-75
2022/05/26 04:07:53;;;;;;;14.75;14.15;;;;;;;;;;5093684;28;20240;-75
2022/05/26 04:10:20;;;;;;;14.73;14.13;;;;;;;;;;5093066;28;20190;-76
2022/05/26 04:12:47;;;;;;;14.25;13.75;;;;;;;;;;5092827;28;20230;-75
2022/05/26 04:15:16;;;;;;;14.40;13.90;;;;;;;;;;5093225;28;20190;-75
2022/05/26 04:17:43;;;;;;;14.32;13.82;;;;;;;;;;5093183;28;20233;-75
2022/05/26 04:20:12;;;;;;;14.70;14.10;;;;;;;;;;5093205;28;20521;-75
2022/05/26 04:22:39;;;;;;;15.18;14.57;;;;;;;;;;5092876;28;20285;-74
2022/05/26 04:25:06;;;;;;;15.05;14.45;;;;;;;;;;5092823;28;20702;-75
2022/05/26 04:27:34;;;;;;;15.38;14.77;;;;;;;;;;5092745;28;20707;-74
2022/05/26 04:30:01;;;;;;;15.15;14.55;;;;;;;;;;5093031;28;20193;-75
2022/05/26 04:32:29;;;;;;;15.07;14.48;;;;;;;;;;5092977;28;20194;-75
2022/05/26 04:34:56;;;;;;;15.15;14.55;;;;;;;;;;5092635;28;20200;-75
2022/05/26 04:37:23;;;;;;;15.25;14.65;;;;;;;;;;5092529;28;20201;-75
2022/05/26 04:39:51;;;;;;;15.15;14.55;;;;;;;;;;5092542;28;20660;-75
2022/05/26 04:42:18;;;;;;;15.85;15.15;;;;;;;;;;5092488;28;20741;-75
2022/05/26 04:44:46;;;;;;;15.43;14.82;;;;;;;;;;5092042;28;20186;-75
2022/05/26 04:47:14;;;;;;;15.40;14.80;;;;;;;;;;5092399;28;20719;-75
2022/05/26 04:49:42;;;;;;;15.60;15.00;;;;;;;;;;5092651;28;20254;-75
2022/05/26 04:52:09;;;;;;;16.17;15.48;;;;;;;;;;5092372;28;20280;-75
2022/05/26 04:54:36;;;;;;;17.05;16.25;;;;;;;;;;5092316;28;20207;-75
2022/05/26 04:57:04;;;;;;;17.17;16.38;;;;;;;;;;5092602;28;20202;-75
2022/05/26 04:59:32;;;;;;;17.27;16.48;;;;;;;;;;5092796;28;20194;-76
2022/05/26 05:02:00;;;;;;;17.27;16.48;;;;;;;;;;5092499;28;20297;-76
2022/05/26 05:04:27;;;;;;;17.48;16.67;;;;;;;;;;5092434;28;20262;-75
2022/05/26 05:06:57;;;;;;;17.35;16.58;;;;;;;;;;5092079;28;20226;-76
2022/05/26 05:09:24;;;;;;;17.10;16.40;;;;;;;;;;5092483;28;20281;-76
2022/05/26 05:11:50;;;;;;;17.15;16.45;;;;;;;;;;5092191;28;20238;-76
2022/05/26 05:14:18;;;;;;;16.85;16.15;;;;;;;;;;5092159;28;20228;-76
2022/05/26 05:16:45;;;;;;;16.83;16.13;;;;;;;;;;5092393;28;20233;-76
2022/05/26 05:19:13;;;;;;;17.25;16.48;;;;;;;;;;5092390;28;20246;-76
2022/05/26 05:21:41;;;;;;;16.90;16.20;;;;;;;;;;5092071;28;20206;-76
2022/05/26 05:24:14;;;;;;;16.90;16.20;;;;;;;;;;5092293;28;20237;-76
2022/05/26 05:26:45;;;;;;;16.45;15.75;;;;;;;;;;5091928;28;20586;-76
2022/05/26 05:29:14;;;;;;;16.30;15.60;;;;;;;;;;5092307;28;20193;-76
2022/05/26 05:31:44;;;;;;;15.68;15.07;;;;;;;;;;5092245;28;20201;-75
2022/05/26 05:34:14;;;;;;;15.40;14.80;;;;;;;;;;5091929;28;20731;-75
2022/05/26 05:36:41;;;;;;;15.55;14.95;;;;;;;;;;5092787;28;20189;-75
2022/05/26 05:39:09;;;;;;;15.90;15.20;;;;;;;;;;5092262;28;20201;-75
2022/05/26 05:41:36;;;;;;;15.93;15.23;;;;;;;;;;5091837;28;20194;-75
2022/05/26 05:44:04;;;;;;;15.70;15.10;;;;;;;;;;5092172;28;20190;-75
2022/05/26 05:46:34;;;;;;;15.35;14.75;;;;;;;;;;5091727;28;20766;-75
2022/05/26 05:49:02;;;;;;;15.38;14.77;;;;;;;;;;5092156;28;20209;-75
2022/05/26 05:51:29;;;;;;;15.73;15.13;;;;;;;;;;5092318;28;20270;-75
2022/05/26 05:53:56;;;;;;;15.48;14.88;;;;;;;;;;5092058;28;20252;-75
2022/05/26 05:56:24;;;;;;;15.80;15.20;;;;;;;;;;5093120;28;20233;-75
2022/05/26 05:58:52;;;;;;;15.98;15.27;;;;;;;;;;5095672;28;20228;-75
2022/05/26 06:01:19;;;;;;;16.83;16.13;;;;;;;;;;5095610;28;20672;-75
2022/05/26 06:03:46;;;;;;;16.83;16.13;;;;;;;;;;5096048;28;20280;-75
2022/05/26 06:06:13;;;;;;;16.48;15.77;;;;;;;;;;5095485;28;20222;-75
2022/05/26 06:08:41;;;;;;;16.55;15.85;;;;;;;;;;5095418;28;20698;-75
2022/05/26 06:11:07;;;;;;;16.60;15.90;;;;;;;;;;5095392;28;20201;-74
2022/05/26 06:13:35;;;;;;;16.80;16.10;;;;;;;;;;5095482;28;20227;-74
2022/05/26 06:16:02;;;;;;;17.30;16.50;;;;;;;;;;5095253;28;20733;-74
2022/05/26 06:18:29;;;;;;;16.85;16.15;;;;;;;;;;5095242;28;20233;-75
2022/05/26 06:21:01;;;;;;;20.33;18.88;;;;;;;;;;5095562;28;20582;-74
2022/05/26 06:23:27;;;;;;;17.15;16.45;;;;;;;;;;5095254;28;20194;-74
2022/05/26 06:25:54;;;;;;;16.35;15.65;;;;;;;;;;5095347;28;20273;-75
2022/05/26 06:31:08;;;;;;;16.92;16.23;;;;;;;;;;5095443;28;20189;-75
2022/05/26 06:39:03;;;;;;;16.48;15.77;;;;;;;;;;5095549;28;20189;-75
2022/05/26 06:44:14;;;;;;;16.77;16.08;;;;;;;;;;5095473;28;20231;-76
2022/05/26 06:46:42;;;;;;;16.50;15.80;;;;;;;;;;5094664;28;20644;-76
2022/05/26 06:49:09;;;;;;;16.85;16.15;;;;;;;;;;5094668;28;20653;-76
2022/05/26 06:51:36;;;;;;;16.60;15.90;;;;;;;;;;5094902;28;20194;-74
2022/05/26 06:54:03;;;;;;;16.33;15.63;;;;;;;;;;5095158;28;20194;-74
2022/05/26 06:56:30;;;;;;;16.25;15.55;;;;;;;;;;5094553;28;20335;-73
2022/05/26 06:58:56;;;;;;;15.90;15.30;;;;;;;;;;5094782;28;20189;-75
2022/05/26 07:01:23;;;;;;;17.15;16.40;;;;;;;;;;5094765;28;20194;-72
2022/05/26 07:03:51;;;;;;;16.55;15.85;;;;;;;;;;5094359;28;20285;-80
2022/05/26 07:06:19;;;;;;;16.67;15.98;;;;;;;;;;5094226;28;20201;-76
2022/05/26 07:08:46;;;;;;;16.60;15.90;;;;;;;;;;5094284;28;20198;-76
2022/05/26 07:11:13;;;;;;;16.60;15.90;;;;;;;;;;5094238;28;20741;-72
2022/05/26 07:13:40;;;;;;;16.42;15.73;;;;;;;;;;5094075;28;20291;-75
2022/05/26 07:16:07;;;;;;;16.67;15.98;;;;;;;;;;5094437;28;20197;-74
2022/05/26 07:18:33;;;;;;;16.80;16.10;;;;;;;;;;5094149;28;20285;-73
2022/05/26 07:21:04;;;;;;;16.38;15.68;;;;;;;;;;5094061;28;20200;-73
2022/05/26 07:23:30;;;;;;;15.88;15.27;;;;;;;;;;5094140;28;20225;-75
2022/05/26 07:25:57;;;;;;;17.25;16.55;;;;;;;;;;5094777;28;20196;-78
2022/05/26 07:28:24;;;;;;;16.15;15.55;;;;;;;;;;5094057;28;20232;-78
2022/05/26 07:30:52;;;;;;;16.20;15.60;;;;;;;;;;5094204;28;20193;-74
2022/05/26 07:33:19;;;;;;;15.90;15.30;;;;;;;;;;5094923;28;20240;-75
2022/05/26 07:35:46;;;;;;;15.73;15.13;;;;;;;;;;5093786;28;20642;-74
2022/05/26 07:43:43;;;;;;;15.82;15.23;;;;;;;;;;5094539;28;20287;-74
2022/05/26 07:46:10;;;;;;;15.70;15.10;;;;;;;;;;5093897;28;20276;-73
2022/05/26 07:48:37;;;;;;;16.13;15.45;;;;;;;;;;5093748;28;20627;-76
2022/05/26 07:51:04;;;;;;;17.52;16.63;;;;;;;;;;5093793;28;20202;-73
2022/05/26 07:53:32;;;;;;;17.10;16.23;;;;;;;;;;5093432;28;20233;-72
2022/05/26 07:56:01;;;;;;;15.48;14.88;;;;;;;;;;5094537;28;20202;-73
2022/05/26 07:58:27;;;;;;;15.80;15.20;;;;;;;;;;5093644;28;20233;-74
2022/05/26 08:00:55;;;;;;;16.90;16.08;;;;;;;;;;5093575;28;20285;-77
2022/05/26 08:03:21;;;;;;;16.17;15.57;;;;;;;;;;5093302;28;20233;-75
2022/05/26 08:05:48;;;;;;;16.50;15.80;;;;;;;;;;5093492;28;20282;-73
2022/05/26 08:08:16;;;;;;;16.17;15.48;;;;;;;;;;5093645;28;20312;-78
2022/05/26 08:10:44;;;;;;;15.85;15.25;;;;;;;;;;5093308;28;20620;-74
2022/05/26 08:13:11;;;;;;;16.27;15.60;;;;;;;;;;5093095;28;20261;-75
2022/05/26 08:15:38;;;;;;;16.63;16.02;;;;;;;;;;5093232;28;20194;-77
2022/05/26 08:18:05;;;;;;;16.20;15.60;;;;;;;;;;5092983;28;20229;-79
2022/05/26 08:20:32;;;;;;;15.77;15.18;;;;;;;;;;5092768;28;20223;-73
2022/05/26 08:22:58;;;;;;;16.20;15.60;;;;;;;;;;5093193;28;20255;-74
2022/05/26 08:25:26;;;;;;;16.05;15.45;;;;;;;;;;5093145;28;20220;-75
2022/05/26 08:27:54;;;;;;;16.00;15.40;;;;;;;;;;5093056;28;20225;-73
2022/05/26 08:30:21;;;;;;;16.20;15.50;;;;;;;;;;5093028;28;20221;-73
2022/05/26 08:32:47;;;;;;;16.27;15.68;;;;;;;;;;5092705;28;20281;-72
2022/05/26 08:35:14;;;;;;;16.60;16.00;;;;;;;;;;5092650;28;20198;-73
2022/05/26 08:37:41;;;;;;;22.90;21.20;;;;;;;;;;5092872;28;20580;-73
2022/05/26 08:40:08;;;;;;;18.63;17.77;;;;;;;;;;5092619;28;20243;-73
2022/05/26 08:42:36;;;;;;;17.55;16.85;;;;;;;;;;5092559;28;20193;-78
2022/05/26 08:45:06;;;;;;;17.10;16.40;;;;;;;;;;5092544;28;20194;-73
2022/05/26 08:47:34;;;;;;;15.85;15.25;;;;;;;;;;5092376;28;20695;-74
2022/05/26 08:50:02;;;;;;;16.38;15.68;;;;;;;;;;5092476;28;20189;-73
2022/05/26 08:52:31;;;;;;;17.42;16.55;;;;;;;;;;5092390;28;20197;-73
2022/05/26 08:55:01;;;;;;;15.88;15.27;;;;;;;;;;5092984;28;20190;-78
2022/05/26 08:57:29;;;;;;;16.45;15.85;;;;;;;;;;5092337;28;20255;-77
2022/05/26 08:59:56;;;;;;;15.63;15.02;;;;;;;;;;5092640;28;20284;-74
2022/05/26 09:02:26;;;;;;;16.77;15.98;;;;;;;;;;5092286;28;20284;-78
2022/05/26 09:04:55;;;;;;;17.13;16.23;;;;;;;;;;5092554;28;20204;-72
2022/05/26 09:12:59;;;;;;;15.85;15.25;;;;;;;;;;5092852;28;20710;-78
2022/05/26 09:15:26;;;;;;;15.82;15.23;;;;;;;;;;5092159;28;20243;-75
2022/05/26 09:17:55;;;;;;;15.65;15.05;;;;;;;;;;5093261;28;20255;-73
2022/05/26 09:20:34;;;;;;;16.92;16.05;;;;;;;;;;5092098;28;20655;-74
2022/05/26 09:23:24;;;;;;;15.52;14.93;;;;;;;;;;5092339;28;20270;-73
2022/05/26 09:25:53;;;;;;;16.25;15.65;;;;;;;;;;5081561;28;20675;-80
2022/05/26 09:28:30;;;;;;;15.85;15.25;;;;;;;;;;5092285;28;20236;-75
2022/05/26 09:30:58;;;;;;;16.77;16.00;;;;;;;;;;5094449;28;20663;-74
2022/05/26 09:33:31;;;;;;;15.88;15.27;;;;;;;;;;5096523;28;20205;-73
2022/05/26 09:36:13;;;;;;;15.68;15.07;;;;;;;;;;5096469;28;20209;-73
2022/05/26 09:38:39;;;;;;;15.65;15.05;;;;;;;;;;5096434;28;20277;-74
2022/05/26 09:41:07;;;;;;;15.38;14.77;;;;;;;;;;5096407;28;20190;-73
2022/05/26 09:43:34;;;;;;;15.77;15.18;;;;;;;;;;5095927;28;20197;-75
2022/05/26 09:46:09;;;;;;;15.73;15.13;;;;;;;;;;5095911;28;20194;-74
2022/05/26 09:48:37;;;;;;;15.73;15.13;;;;;;;;;;5096132;28;20213;-77
2022/05/26 09:51:06;;;;;;;17.08;16.27;;;;;;;;;;5095842;28;20250;-75
2022/05/26 09:53:35;;;;;;;16.17;15.48;;;;;;;;;;5095982;28;20683;-73
2022/05/26 09:56:02;;;;;;;16.27;15.57;;;;;;;;;;5096038;28;20193;-73
2022/05/26 09:58:30;;;;;;;15.98;15.27;;;;;;;;;;5096031;28;20267;-76
2022/05/26 10:00:58;;;;;;;15.63;15.02;;;;;;;;;;5096202;28;20318;-74
2022/05/26 10:03:32;;;;;;;15.90;15.30;;;;;;;;;;5095567;28;20565;-75
2022/05/26 10:06:07;;;;;;;15.45;14.85;;;;;;;;;;5095880;28;20185;-73
2022/05/26 10:08:38;;;;;;;16.00;15.40;;;;;;;;;;5095736;28;20217;-73
2022/05/26 10:11:09;;;;;;;15.52;14.93;;;;;;;;;;5095512;28;20225;-78
2022/05/26 10:13:40;;;;;;;15.77;15.18;;;;;;;;;;5095366;28;20322;-73
2022/05/26 10:16:11;;;;;;;15.52;14.93;;;;;;;;;;5095685;28;20251;-82
2022/05/26 10:19:08;;;;;;;15.30;14.70;;;;;;;;;;5095348;28;20218;-84
2022/05/26 10:21:44;;;;;;;15.57;14.98;;;;;;;;;;5053184;28;20195;-72
2022/05/26 10:24:26;;;;;;;15.50;14.90;;;;;;;;;;5088204;28;20229;-72
2022/05/26 10:26:55;;;;;;;15.43;14.82;;;;;;;;;;5086574;28;20190;-74
2022/05/26 10:29:28;;;;;;;15.60;15.00;;;;;;;;;;5095322;28;20316;-73
2022/05/26 10:32:00;;;;;;;15.50;14.90;;;;;;;;;;5095657;28;20201;-75
2022/05/26 10:34:48;;;;;;;15.57;14.98;;;;;;;;;;5095010;28;20653;-73
2022/05/26 10:37:25;;;;;;;15.65;15.05;;;;;;;;;;5091606;28;20202;-76
2022/05/26 10:40:03;;;;;;;15.55;14.95;;;;;;;;;;5095526;28;20239;-72
2022/05/26 10:42:32;;;;;;;15.82;15.13;;;;;;;;;;5094359;28;20197;-74
2022/05/26 10:45:06;;;;;;;16.20;15.50;;;;;;;;;;5095144;28;20251;-73
2022/05/26 10:47:35;;;;;;;15.20;14.60;;;;;;;;;;5094977;28;20209;-74
2022/05/26 10:50:06;;;;;;;15.48;14.88;;;;;;;;;;5094734;28;20194;-72
2022/05/26 10:52:37;;;;;;;15.45;14.85;;;;;;;;;;5094660;28;20190;-74
2022/05/26 10:55:08;;;;;;;18.92;18.13;;;;;;;;;;5095368;28;20272;-75
2022/05/26 10:57:39;;;;;;;15.20;14.60;;;;;;;;;;5094944;28;20190;-77
2022/05/26 11:00:07;;;;;;;15.40;14.80;;;;;;;;;;5095177;28;20196;-72
2022/05/26 11:02:37;;;;;;;15.38;14.77;;;;;;;;;;5094794;28;20190;-72
2022/05/26 11:05:05;;;;;;;16.83;16.13;;;;;;;;;;5094732;28;20194;-72
2022/05/26 11:07:36;;;;;;;15.88;15.27;;;;;;;;;;5094290;28;20289;-72
2022/05/26 11:10:05;;;;;;;15.75;15.15;;;;;;;;;;5094389;28;20194;-75
2022/05/26 11:12:34;;;;;;;16.02;15.43;;;;;;;;;;5094072;28;20263;-75
2022/05/26 11:17:49;;;;;;;16.05;15.45;;;;;;;;;;5094562;28;20583;-73
2022/05/26 11:20:19;;;;;;;16.50;15.80;;;;;;;;;;5094727;28;20202;-79
2022/05/26 11:22:48;;;;;;;17.00;16.23;;;;;;;;;;5094670;28;20194;-76
2022/05/26 11:25:16;;;;;;;16.85;16.15;;;;;;;;;;5094349;28;20201;-77
2022/05/26 11:27:45;;;;;;;16.38;15.68;;;;;;;;;;5094215;28;20222;-73
2022/05/26 11:36:07;;;;;;;17.20;15.95;;;;;;;;;;5094214;28;20190;-73
2022/05/26 11:38:32;;;;;;;15.85;15.25;;;;;;;;;;5094484;28;20230;-73
2022/05/26 11:41:04;;;;;;;16.02;15.43;;;;;;;;;;5094074;28;20196;-73
2022/05/26 11:43:33;;;;;;;15.85;15.25;;;;;;;;;;5093700;28;20322;-78
2022/05/26 11:46:00;;;;;;;16.15;15.55;;;;;;;;;;5093932;28;20190;-73
2022/05/26 11:48:42;;;;;;;16.10;15.50;;;;;;;;;;5093784;28;20253;-73
2022/05/26 11:51:27;;;;;;;16.33;15.70;;;;;;;;;;5092000;28;20200;-76
2022/05/26 11:53:55;;;;;;;16.40;15.70;;;;;;;;;;5092347;28;20635;-74
2022/05/26 11:56:42;;;;;;;16.40;15.70;;;;;;;;;;5093380;28;20285;-78
2022/05/26 11:59:27;;;;;;;16.17;15.57;;;;;;;;;;5093357;28;20284;-71
2022/05/26 12:02:12;;;;;;;16.17;15.57;;;;;;;;;;5093364;28;20255;-72
2022/05/26 12:04:40;;;;;;;16.60;15.90;;;;;;;;;;5093543;28;20641;-71
2022/05/26 12:07:31;;;;;;;16.23;15.57;;;;;;;;;;5093591;28;20198;-78
2022/05/26 12:10:00;;;;;;;16.77;16.08;;;;;;;;;;5093832;28;20372;-82
2022/05/26 12:12:30;;;;;;;16.52;15.82;;;;;;;;;;5093119;28;20252;-73
2022/05/26 12:15:03;;;;;;;16.58;15.88;;;;;;;;;;5093433;28;20632;-74
2022/05/26 12:17:32;;;;;;;16.55;15.85;;;;;;;;;;5093327;28;20198;-73
2022/05/26 12:20:03;;;;;;;16.17;15.48;;;;;;;;;;5093006;28;20237;-71
2022/05/26 12:22:32;;;;;;;16.17;15.48;;;;;;;;;;5093256;28;20192;-72
2022/05/26 12:25:14;;;;;;;16.70;16.00;;;;;;;;;;5092911;28;20198;-74
2022/05/26 12:28:02;;;;;;;16.52;15.82;;;;;;;;;;5093157;28;20196;-78
2022/05/26 12:30:37;;;;;;;16.17;15.50;;;;;;;;;;5092810;28;20201;-72
2022/05/26 12:33:13;;;;;;;16.13;15.43;;;;;;;;;;5092690;28;20232;-74
2022/05/26 12:35:42;;;;;;;16.27;15.57;;;;;;;;;;5092738;28;20560;-70
2022/05/26 12:38:14;;;;;;;16.30;15.60;;;;;;;;;;5092932;28;20194;-71
2022/05/26 12:40:49;;;;;;;16.38;15.68;;;;;;;;;;5092995;28;20222;-78
2022/05/26 12:43:27;;;;;;;16.23;15.52;;;;;;;;;;5092571;28;20190;-73
2022/05/26 12:45:57;;;;;;;16.13;15.43;;;;;;;;;;5092942;28;20185;-78
2022/05/26 12:48:36;;;;;;;16.38;15.68;;;;;;;;;;5092424;28;20221;-72
2022/05/26 12:51:05;;;;;;;16.23;15.52;;;;;;;;;;5092499;28;20598;-72
2022/05/26 12:53:33;;;;;;;16.42;15.73;;;;;;;;;;5092668;28;20737;-75
2022/05/26 12:56:01;;;;;;;16.17;15.48;;;;;;;;;;5092422;28;20190;-77
2022/05/26 12:58:36;;;;;;;16.52;15.82;;;;;;;;;;5092672;28;20624;-77
2022/05/26 13:01:04;;;;;;;16.52;15.82;;;;;;;;;;5092721;28;20217;-72
2022/05/26 13:03:33;;;;;;;16.60;15.90;;;;;;;;;;5092278;28;20190;-77
2022/05/26 13:06:01;;;;;;;16.52;15.80;;;;;;;;;;5092172;28;20197;-73
2022/05/26 13:08:30;;;;;;;16.55;15.85;;;;;;;;;;5092151;28;20762;-74
2022/05/26 13:10:58;;;;;;;16.80;16.10;;;;;;;;;;5092534;28;20247;-73
2022/05/26 13:13:26;;;;;;;16.55;15.85;;;;;;;;;;5092267;28;20226;-72
2022/05/26 13:15:54;;;;;;;16.45;15.75;;;;;;;;;;5092081;28;20697;-73
2022/05/26 13:18:22;;;;;;;16.48;15.77;;;;;;;;;;5092690;28;20201;-73
2022/05/26 13:20:48;;;;;;;16.42;15.73;;;;;;;;;;5092069;28;20194;-73
2022/05/26 13:23:27;;;;;;;16.48;15.77;;;;;;;;;;5093152;28;20197;-74
2022/05/26 13:25:54;;;;;;;16.45;15.75;;;;;;;;;;5092070;28;20186;-72
2022/05/26 13:28:26;;;;;;;16.40;15.70;;;;;;;;;;5091934;28;20233;-79
2022/05/26 13:33:41;;;;;;;16.70;16.00;;;;;;;;;;5092652;28;20647;-73
2022/05/26 13:36:08;;;;;;;16.40;15.70;;;;;;;;;;5092255;28;20280;-72
2022/05/26 13:38:36;;;;;;;16.52;15.82;;;;;;;;;;5091943;28;20190;-75
2022/05/26 13:41:04;;;;;;;16.52;15.82;;;;;;;;;;5092216;28;20201;-74
2022/05/26 13:43:32;;;;;;;16.25;15.55;;;;;;;;;;5092203;28;20201;-73
2022/05/26 13:46:01;;;;;;;16.27;15.57;;;;;;;;;;5091868;28;20201;-73
2022/05/26 13:48:29;;;;;;;16.70;16.00;;;;;;;;;;5091722;28;20687;-74
2022/05/26 13:50:58;;;;;;;16.38;15.68;;;;;;;;;;5091842;28;20684;-72
2022/05/26 13:53:25;;;;;;;16.17;15.48;;;;;;;;;;5092099;28;20221;-71
2022/05/26 13:55:53;;;;;;;16.17;15.48;;;;;;;;;;5092199;28;20201;-71
2022/05/26 13:58:21;;;;;;;18.63;17.52;;;;;;;;;;5091718;28;20654;-72
2022/05/26 14:00:57;;;;;;;16.20;15.50;;;;;;;;;;5091697;28;20203;-80
2022/05/26 14:03:26;;;;;;;16.27;15.57;;;;;;;;;;5091993;28;20648;-76
2022/05/26 14:06:00;;;;;;;15.75;15.15;;;;;;;;;;5091633;28;20198;-73
2022/05/26 14:08:27;;;;;;;16.05;15.38;;;;;;;;;;5091884;28;20285;-74
2022/05/26 14:10:54;;;;;;;16.17;15.48;;;;;;;;;;5091584;28;20230;-73
2022/05/26 14:13:38;;;;;;;16.20;15.50;;;;;;;;;;5091656;28;20763;-76
2022/05/26 14:16:22;;;;;;;16.08;15.40;;;;;;;;;;5091622;28;20582;-72
2022/05/26 14:18:52;;;;;;;16.05;15.35;;;;;;;;;;5095067;28;20200;-73
2022/05/26 14:21:23;;;;;;;16.17;15.48;;;;;;;;;;5095285;28;20193;-72
2022/05/26 14:23:52;;;;;;;16.08;15.38;;;;;;;;;;5095323;28;20190;-84
2022/05/26 14:26:40;;;;;;;16.17;15.48;;;;;;;;;;5095191;28;20660;-76
2022/05/26 14:29:30;;;;;;;16.08;15.38;;;;;;;;;;5091679;28;20308;-73
2022/05/26 14:31:57;;;;;;;16.23;15.52;;;;;;;;;;5094978;28;20196;-79
2022/05/26 14:34:30;;;;;;;16.27;15.57;;;;;;;;;;5095009;28;20281;-72
2022/05/26 14:36:58;;;;;;;16.17;15.48;;;;;;;;;;5095274;28;20229;-81
2022/05/26 14:39:24;;;;;;;16.23;15.52;;;;;;;;;;5095267;28;20194;-73
2022/05/26 14:41:51;;;;;;;16.27;15.57;;;;;;;;;;5094910;28;20197;-77
2022/05/26 14:44:18;;;;;;;16.15;15.45;;;;;;;;;;5095142;28;20267;-79
2022/05/26 14:46:45;;;;;;;16.02;15.32;;;;;;;;;;5094818;28;20285;-72
2022/05/26 14:49:12;;;;;;;16.35;15.65;;;;;;;;;;5094700;28;20218;-72
2022/05/26 14:51:42;;;;;;;16.20;15.50;;;;;;;;;;5094707;28;20637;-72
2022/05/26 14:56:53;;;;;;;16.52;15.82;;;;;;;;;;5095327;28;20293;-80
2022/05/26 14:59:20;;;;;;;16.38;15.68;;;;;;;;;;5094567;28;20230;-72
2022/05/26 15:01:47;;;;;;;16.55;15.85;;;;;;;;;;5094519;28;20194;-72
2022/05/26 15:04:13;;;;;;;16.75;16.05;;;;;;;;;;5094457;28;20683;-72
2022/05/26 15:06:43;;;;;;;16.60;15.90;;;;;;;;;;5094643;28;20198;-72
2022/05/26 15:09:11;;;;;;;16.50;15.80;;;;;;;;;;5095153;28;20226;-72
2022/05/26 15:11:38;;;;;;;16.50;15.80;;;;;;;;;;5094178;28;20198;-72